sensor_id;sensor_type;location;lat;lon;timestamp;temperature;humidity
7212;DHT22;3647;48.792;9.802;2023-07-08T06:42:38;27.60;88.00
7212;DHT22;3647;48.792;9.802;2023-07-08T06:45:05;27.80;87.90
7212;DHT22;3647;48.792;9.802;2023-07-08T06:47:32;28.10;85.10
7212;DHT22;3647;48.792;9.802;2023-07-08T06:49:59;28.30;85.20
7212;DHT22;3647;48.792;9.802;2023-07-08T06:52:26;28.30;84.60
7212;DHT22;3647;48.792;9.802;2023-07-08T06:54:53;28.30;84.60
7212;DHT22;3647;48.792;9.802;2023-07-08T06:57:20;28.50;85.00
7212;DHT22;3647;48.792;9.802;2023-07-08T06:59:48;28.70;84.80
7212;DHT22;3647;48.792;9.802;2023-07-08T07:02:15;28.60;85.20
7212;DHT22;3647;48.792;9.802;2023-07-08T07:04:42;28.40;85.20
7212;DHT22;3647;48.792;9.802;2023-07-08T07:07:09;28.10;85.70
7212;DHT22;3647;48.792;9.802;2023-07-08T07:09:36;28.00;86.00
7212;DHT22;3647;48.792;9.802;2023-07-08T07:12:04;27.90;86.50
7212;DHT22;3647;48.792;9.802;2023-07-08T07:14:32;27.80;88.10
7212;DHT22;3647;48.792;9.802;2023-07-08T07:17:00;27.70;89.90
7212;DHT22;3647;48.792;9.802;2023-07-08T07:19:27;27.70;89.70
7212;DHT22;3647;48.792;9.802;2023-07-08T07:21:53;27.80;89.90
7212;DHT22;3647;48.792;9.802;2023-07-08T07:24:20;28.00;90.00
7212;DHT22;3647;48.792;9.802;2023-07-08T07:26:47;28.10;86.80
7212;DHT22;3647;48.792;9.802;2023-07-08T07:29:16;28.10;85.40
7212;DHT22;3647;48.792;9.802;2023-07-08T07:31:43;28.10;83.50
7212;DHT22;3647;48.792;9.802;2023-07-08T07:34:11;28.00;84.60
7212;DHT22;3647;48.792;9.802;2023-07-08T07:36:39;28.10;85.40
7212;DHT22;3647;48.792;9.802;2023-07-08T07:39:06;28.20;86.40
7212;DHT22;3647;48.792;9.802;2023-07-08T07:41:33;28.20;86.10
7212;DHT22;3647;48.792;9.802;2023-07-08T07:44:00;28.20;85.40
7212;DHT22;3647;48.792;9.802;2023-07-08T07:46:27;28.30;85.00
7212;DHT22;3647;48.792;9.802;2023-07-08T07:48:54;28.20;85.00
7212;DHT22;3647;48.792;9.802;2023-07-08T07:51:22;28.20;85.30
7212;DHT22;3647;48.792;9.802;2023-07-08T07:53:48;28.00;84.80
7212;DHT22;3647;48.792;9.802;2023-07-08T07:56:15;27.80;83.90
7212;DHT22;3647;48.792;9.802;2023-07-08T07:58:42;27.90;84.90
7212;DHT22;3647;48.792;9.802;2023-07-08T08:01:09;27.80;85.80
7212;DHT22;3647;48.792;9.802;2023-07-08T08:03:35;27.90;86.70
7212;DHT22;3647;48.792;9.802;2023-07-08T08:06:02;27.90;85.70
7212;DHT22;3647;48.792;9.802;2023-07-08T08:08:30;27.80;86.20
7212;DHT22;3647;48.792;9.802;2023-07-08T08:10:57;27.80;86.60
7212;DHT22;3647;48.792;9.802;2023-07-08T08:13:24;27.80;85.80
7212;DHT22;3647;48.792;9.802;2023-07-08T08:15:56;27.70;85.40
7212;DHT22;3647;48.792;9.802;2023-07-08T08:18:23;27.70;86.20
7212;DHT22;3647;48.792;9.802;2023-07-08T08:20:50;27.70;86.20
7212;DHT22;3647;48.792;9.802;2023-07-08T08:23:17;27.70;87.00
7212;DHT22;3647;48.792;9.802;2023-07-08T08:25:45;27.70;87.20
7212;DHT22;3647;48.792;9.802;2023-07-08T08:28:12;27.60;87.20
7212;DHT22;3647;48.792;9.802;2023-07-08T08:30:39;27.60;87.40
7212;DHT22;3647;48.792;9.802;2023-07-08T08:33:05;27.60;87.80
7212;DHT22;3647;48.792;9.802;2023-07-08T08:35:32;27.60;88.50
7212;DHT22;3647;48.792;9.802;2023-07-08T08:37:59;27.80;88.00
7212;DHT22;3647;48.792;9.802;2023-07-08T08:40:28;27.80;87.70
7212;DHT22;3647;48.792;9.802;2023-07-08T08:43:01;28.00;87.40
7212;DHT22;3647;48.792;9.802;2023-07-08T08:45:33;28.20;88.50
7212;DHT22;3647;48.792;9.802;2023-07-08T08:48:03;28.60;87.00
7212;DHT22;3647;48.792;9.802;2023-07-08T08:50:33;28.90;87.80
7212;DHT22;3647;48.792;9.802;2023-07-08T08:53:04;29.30;85.50
7212;DHT22;3647;48.792;9.802;2023-07-08T08:55:32;29.70;84.20
7212;DHT22;3647;48.792;9.802;2023-07-08T08:58:10;29.80;83.10
7212;DHT22;3647;48.792;9.802;2023-07-08T09:00:52;30.10;82.20
7212;DHT22;3647;48.792;9.802;2023-07-08T09:03:28;30.60;81.40
7212;DHT22;3647;48.792;9.802;2023-07-08T09:06:00;31.00;80.00
7212;DHT22;3647;48.792;9.802;2023-07-08T09:08:31;31.20;77.60
7212;DHT22;3647;48.792;9.802;2023-07-08T09:11:03;30.90;77.60
7212;DHT22;3647;48.792;9.802;2023-07-08T09:13:37;31.20;77.70
7212;DHT22;3647;48.792;9.802;2023-07-08T09:16:06;31.20;76.30
7212;DHT22;3647;48.792;9.802;2023-07-08T09:18:40;31.10;75.90
7212;DHT22;3647;48.792;9.802;2023-07-08T09:21:19;30.70;76.60
7212;DHT22;3647;48.792;9.802;2023-07-08T09:23:48;30.90;77.20
7212;DHT22;3647;48.792;9.802;2023-07-08T09:26:19;31.20;76.40
7212;DHT22;3647;48.792;9.802;2023-07-08T09:28:49;31.40;76.90
7212;DHT22;3647;48.792;9.802;2023-07-08T09:31:22;31.60;76.40
7212;DHT22;3647;48.792;9.802;2023-07-08T09:33:51;31.60;74.20
7212;DHT22;3647;48.792;9.802;2023-07-08T09:36:21;32.00;76.00
7212;DHT22;3647;48.792;9.802;2023-07-08T09:38:49;31.50;73.90
7212;DHT22;3647;48.792;9.802;2023-07-08T09:41:32;31.80;74.00
7212;DHT22;3647;48.792;9.802;2023-07-08T09:44:19;31.90;74.80
7212;DHT22;3647;48.792;9.802;2023-07-08T09:46:49;32.10;73.10
7212;DHT22;3647;48.792;9.802;2023-07-08T09:49:18;31.40;73.00
7212;DHT22;3647;48.792;9.802;2023-07-08T09:51:46;31.20;74.10
7212;DHT22;3647;48.792;9.802;2023-07-08T09:54:16;31.00;73.60
7212;DHT22;3647;48.792;9.802;2023-07-08T09:56:45;30.90;74.20
7212;DHT22;3647;48.792;9.802;2023-07-08T09:59:19;31.00;75.60
7212;DHT22;3647;48.792;9.802;2023-07-08T10:01:47;31.10;75.30
7212;DHT22;3647;48.792;9.802;2023-07-08T10:04:14;31.00;76.20
7212;DHT22;3647;48.792;9.802;2023-07-08T10:06:44;30.90;76.80
7212;DHT22;3647;48.792;9.802;2023-07-08T10:09:13;31.00;76.80
7212;DHT22;3647;48.792;9.802;2023-07-08T10:11:47;31.00;76.30
7212;DHT22;3647;48.792;9.802;2023-07-08T10:14:23;31.10;76.20
7212;DHT22;3647;48.792;9.802;2023-07-08T10:16:50;30.90;77.10
7212;DHT22;3647;48.792;9.802;2023-07-08T10:19:19;30.80;77.50
7212;DHT22;3647;48.792;9.802;2023-07-08T10:21:53;30.70;78.60
7212;DHT22;3647;48.792;9.802;2023-07-08T10:24:35;30.70;78.40
7212;DHT22;3647;48.792;9.802;2023-07-08T10:27:12;30.50;79.50
7212;DHT22;3647;48.792;9.802;2023-07-08T10:29:53;30.10;79.60
7212;DHT22;3647;48.792;9.802;2023-07-08T10:32:39;30.00;80.90
7212;DHT22;3647;48.792;9.802;2023-07-08T10:35:12;29.80;81.00
7212;DHT22;3647;48.792;9.802;2023-07-08T10:37:50;29.70;80.40
7212;DHT22;3647;48.792;9.802;2023-07-08T10:40:33;29.70;81.10
7212;DHT22;3647;48.792;9.802;2023-07-08T10:43:33;28.30;80.60
7212;DHT22;3647;48.792;9.802;2023-07-08T10:46:16;29.60;84.10
7212;DHT22;3647;48.792;9.802;2023-07-08T10:48:59;29.60;87.40
7212;DHT22;3647;48.792;9.802;2023-07-08T10:51:35;29.70;86.20
7212;DHT22;3647;48.792;9.802;2023-07-08T10:56:56;29.70;83.50
7212;DHT22;3647;48.792;9.802;2023-07-08T10:59:41;29.70;85.40
7212;DHT22;3647;48.792;9.802;2023-07-08T11:02:34;29.70;84.80
7212;DHT22;3647;48.792;9.802;2023-07-08T11:05:15;29.80;84.90
7212;DHT22;3647;48.792;9.802;2023-07-08T11:07:47;30.10;84.20
7212;DHT22;3647;48.792;9.802;2023-07-08T11:10:17;30.30;85.30
7212;DHT22;3647;48.792;9.802;2023-07-08T11:12:49;30.50;82.70
7212;DHT22;3647;48.792;9.802;2023-07-08T11:15:21;30.90;81.60
7212;DHT22;3647;48.792;9.802;2023-07-08T11:17:57;31.10;79.90
7212;DHT22;3647;48.792;9.802;2023-07-08T11:20:35;31.20;77.90
7212;DHT22;3647;48.792;9.802;2023-07-08T11:23:05;31.50;77.90
7212;DHT22;3647;48.792;9.802;2023-07-08T11:25:35;31.50;71.80
7212;DHT22;3647;48.792;9.802;2023-07-08T11:28:04;31.70;73.70
7212;DHT22;3647;48.792;9.802;2023-07-08T11:30:32;32.00;72.80
7212;DHT22;3647;48.792;9.802;2023-07-08T11:33:09;32.10;73.90
7212;DHT22;3647;48.792;9.802;2023-07-08T11:35:40;32.30;72.10
7212;DHT22;3647;48.792;9.802;2023-07-08T11:38:11;32.30;71.70
7212;DHT22;3647;48.792;9.802;2023-07-08T11:40:51;32.40;71.50
7212;DHT22;3647;48.792;9.802;2023-07-08T11:43:19;32.60;71.20
7212;DHT22;3647;48.792;9.802;2023-07-08T11:45:49;32.90;70.30
7212;DHT22;3647;48.792;9.802;2023-07-08T11:48:21;32.80;68.20
7212;DHT22;3647;48.792;9.802;2023-07-08T11:50:49;32.90;66.80
7212;DHT22;3647;48.792;9.802;2023-07-08T11:53:34;33.10;65.40
7212;DHT22;3647;48.792;9.802;2023-07-08T11:56:03;33.10;64.40
7212;DHT22;3647;48.792;9.802;2023-07-08T11:58:51;32.80;64.10
7212;DHT22;3647;48.792;9.802;2023-07-08T12:01:23;32.80;62.40
7212;DHT22;3647;48.792;9.802;2023-07-08T12:03:54;33.00;63.80
7212;DHT22;3647;48.792;9.802;2023-07-08T12:06:42;33.00;64.10
7212;DHT22;3647;48.792;9.802;2023-07-08T12:09:14;33.10;64.20
7212;DHT22;3647;48.792;9.802;2023-07-08T12:11:44;33.00;61.80
7212;DHT22;3647;48.792;9.802;2023-07-08T12:14:12;32.40;60.20
7212;DHT22;3647;48.792;9.802;2023-07-08T12:16:40;32.40;61.90
7212;DHT22;3647;48.792;9.802;2023-07-08T12:19:13;32.60;62.90
7212;DHT22;3647;48.792;9.802;2023-07-08T12:21:42;32.40;63.00
7212;DHT22;3647;48.792;9.802;2023-07-08T12:24:12;32.40;64.40
7212;DHT22;3647;48.792;9.802;2023-07-08T12:26:40;32.50;64.20
7212;DHT22;3647;48.792;9.802;2023-07-08T12:29:08;32.60;63.00
7212;DHT22;3647;48.792;9.802;2023-07-08T12:31:37;32.70;62.00
7212;DHT22;3647;48.792;9.802;2023-07-08T12:34:04;32.80;61.70
7212;DHT22;3647;48.792;9.802;2023-07-08T12:36:33;32.90;62.10
7212;DHT22;3647;48.792;9.802;2023-07-08T12:39:01;33.00;59.90
7212;DHT22;3647;48.792;9.802;2023-07-08T12:41:31;33.00;61.40
7212;DHT22;3647;48.792;9.802;2023-07-08T12:43:58;33.10;59.80
7212;DHT22;3647;48.792;9.802;2023-07-08T12:46:26;32.70;59.00
7212;DHT22;3647;48.792;9.802;2023-07-08T12:48:53;31.00;59.10
7212;DHT22;3647;48.792;9.802;2023-07-08T12:51:26;32.70;60.90
7212;DHT22;3647;48.792;9.802;2023-07-08T12:53:54;32.60;61.90
7212;DHT22;3647;48.792;9.802;2023-07-08T12:56:22;32.90;61.80
7212;DHT22;3647;48.792;9.802;2023-07-08T12:58:52;32.90;60.60
7212;DHT22;3647;48.792;9.802;2023-07-08T13:01:22;33.00;60.80
7212;DHT22;3647;48.792;9.802;2023-07-08T13:03:51;33.00;61.70
7212;DHT22;3647;48.792;9.802;2023-07-08T13:06:21;33.10;60.90
7212;DHT22;3647;48.792;9.802;2023-07-08T13:08:49;33.10;60.10
7212;DHT22;3647;48.792;9.802;2023-07-08T13:11:20;33.10;60.00
7212;DHT22;3647;48.792;9.802;2023-07-08T13:14:01;33.20;59.70
7212;DHT22;3647;48.792;9.802;2023-07-08T13:16:32;34.30;61.80
7212;DHT22;3647;48.792;9.802;2023-07-08T13:18:59;33.20;59.20
7212;DHT22;3647;48.792;9.802;2023-07-08T13:21:26;33.40;60.40
7212;DHT22;3647;48.792;9.802;2023-07-08T13:23:56;33.70;60.10
7212;DHT22;3647;48.792;9.802;2023-07-08T13:26:27;33.80;59.80
7212;DHT22;3647;48.792;9.802;2023-07-08T13:28:59;33.60;58.50
7212;DHT22;3647;48.792;9.802;2023-07-08T13:31:32;33.40;59.60
7212;DHT22;3647;48.792;9.802;2023-07-08T13:34:06;33.40;58.70
7212;DHT22;3647;48.792;9.802;2023-07-08T13:36:36;32.40;59.20
7212;DHT22;3647;48.792;9.802;2023-07-08T13:39:06;32.50;59.70
7212;DHT22;3647;48.792;9.802;2023-07-08T13:41:35;32.40;59.70
7212;DHT22;3647;48.792;9.802;2023-07-08T13:44:07;32.50;59.70
7212;DHT22;3647;48.792;9.802;2023-07-08T13:46:36;32.70;61.10
7212;DHT22;3647;48.792;9.802;2023-07-08T13:49:11;33.20;59.90
7212;DHT22;3647;48.792;9.802;2023-07-08T13:51:39;33.40;59.40
7212;DHT22;3647;48.792;9.802;2023-07-08T13:54:15;33.40;60.10
7212;DHT22;3647;48.792;9.802;2023-07-08T13:56:47;33.60;60.00
7212;DHT22;3647;48.792;9.802;2023-07-08T13:59:18;33.80;59.50
7212;DHT22;3647;48.792;9.802;2023-07-08T14:01:45;33.70;57.60
7212;DHT22;3647;48.792;9.802;2023-07-08T14:04:13;33.70;58.20
7212;DHT22;3647;48.792;9.802;2023-07-08T14:06:41;33.80;57.60
7212;DHT22;3647;48.792;9.802;2023-07-08T14:09:12;33.60;55.90
7212;DHT22;3647;48.792;9.802;2023-07-08T14:11:39;33.60;55.80
7212;DHT22;3647;48.792;9.802;2023-07-08T14:14:09;33.70;53.80
7212;DHT22;3647;48.792;9.802;2023-07-08T14:16:37;33.60;54.00
7212;DHT22;3647;48.792;9.802;2023-07-08T14:19:07;33.30;53.70
7212;DHT22;3647;48.792;9.802;2023-07-08T14:21:37;33.30;52.40
7212;DHT22;3647;48.792;9.802;2023-07-08T14:24:10;32.80;53.10
7212;DHT22;3647;48.792;9.802;2023-07-08T14:26:41;32.60;53.70
7212;DHT22;3647;48.792;9.802;2023-07-08T14:29:11;32.90;54.50
7212;DHT22;3647;48.792;9.802;2023-07-08T14:31:39;33.10;55.10
7212;DHT22;3647;48.792;9.802;2023-07-08T14:34:08;33.30;54.90
7212;DHT22;3647;48.792;9.802;2023-07-08T14:36:35;33.30;55.20
7212;DHT22;3647;48.792;9.802;2023-07-08T14:39:10;33.40;55.20
7212;DHT22;3647;48.792;9.802;2023-07-08T14:41:38;33.40;55.30
7212;DHT22;3647;48.792;9.802;2023-07-08T14:44:19;33.40;54.70
7212;DHT22;3647;48.792;9.802;2023-07-08T14:46:47;33.10;56.50
7212;DHT22;3647;48.792;9.802;2023-07-08T14:49:16;33.30;56.40
7212;DHT22;3647;48.792;9.802;2023-07-08T14:51:43;33.40;55.80
7212;DHT22;3647;48.792;9.802;2023-07-08T14:54:10;33.60;56.60
7212;DHT22;3647;48.792;9.802;2023-07-08T14:56:39;33.90;56.40
7212;DHT22;3647;48.792;9.802;2023-07-08T14:59:12;34.10;56.40
7212;DHT22;3647;48.792;9.802;2023-07-08T15:01:46;34.40;54.80
7212;DHT22;3647;48.792;9.802;2023-07-08T15:04:14;34.10;55.20
7212;DHT22;3647;48.792;9.802;2023-07-08T15:06:42;33.90;55.60
7212;DHT22;3647;48.792;9.802;2023-07-08T15:09:10;33.60;56.40
7212;DHT22;3647;48.792;9.802;2023-07-08T15:11:38;33.40;55.90
7212;DHT22;3647;48.792;9.802;2023-07-08T15:14:17;33.30;56.40
7212;DHT22;3647;48.792;9.802;2023-07-08T15:16:47;33.00;56.10
7212;DHT22;3647;48.792;9.802;2023-07-08T15:19:13;32.90;56.50
7212;DHT22;3647;48.792;9.802;2023-07-08T15:21:40;32.70;57.00
7212;DHT22;3647;48.792;9.802;2023-07-08T15:24:12;32.70;58.50
7212;DHT22;3647;48.792;9.802;2023-07-08T15:26:41;32.40;57.00
7212;DHT22;3647;48.792;9.802;2023-07-08T15:29:13;32.20;57.50
7212;DHT22;3647;48.792;9.802;2023-07-08T15:31:44;32.10;57.80
7212;DHT22;3647;48.792;9.802;2023-07-08T15:34:17;32.00;58.30
7212;DHT22;3647;48.792;9.802;2023-07-08T15:36:45;31.90;59.10
7212;DHT22;3647;48.792;9.802;2023-07-08T15:39:13;31.90;59.70
7212;DHT22;3647;48.792;9.802;2023-07-08T15:41:41;31.90;58.30
7212;DHT22;3647;48.792;9.802;2023-07-08T15:44:09;32.00;58.20
7212;DHT22;3647;48.792;9.802;2023-07-08T15:46:39;31.90;59.80
7212;DHT22;3647;48.792;9.802;2023-07-08T15:49:16;32.10;58.20
7212;DHT22;3647;48.792;9.802;2023-07-08T15:51:44;32.40;56.60
7212;DHT22;3647;48.792;9.802;2023-07-08T15:54:11;32.50;56.90
7212;DHT22;3647;48.792;9.802;2023-07-08T15:56:40;32.70;57.50
7212;DHT22;3647;48.792;9.802;2023-07-08T15:59:14;32.50;57.00
7212;DHT22;3647;48.792;9.802;2023-07-08T16:01:43;32.50;57.50
7212;DHT22;3647;48.792;9.802;2023-07-08T16:04:21;32.50;57.70
7212;DHT22;3647;48.792;9.802;2023-07-08T16:06:52;32.30;56.90
7212;DHT22;3647;48.792;9.802;2023-07-08T16:09:25;32.30;57.40
7212;DHT22;3647;48.792;9.802;2023-07-08T16:11:52;32.30;57.70
7212;DHT22;3647;48.792;9.802;2023-07-08T16:14:19;32.20;57.30
7212;DHT22;3647;48.792;9.802;2023-07-08T16:16:46;32.50;58.10
7212;DHT22;3647;48.792;9.802;2023-07-08T16:19:15;32.60;56.80
7212;DHT22;3647;48.792;9.802;2023-07-08T16:21:46;32.70;57.40
7212;DHT22;3647;48.792;9.802;2023-07-08T16:24:14;32.60;57.40
7212;DHT22;3647;48.792;9.802;2023-07-08T16:26:41;32.80;57.60
7212;DHT22;3647;48.792;9.802;2023-07-08T16:29:14;32.60;57.70
7212;DHT22;3647;48.792;9.802;2023-07-08T16:31:41;32.50;57.80
7212;DHT22;3647;48.792;9.802;2023-07-08T16:34:10;32.50;58.40
7212;DHT22;3647;48.792;9.802;2023-07-08T16:36:37;32.50;58.30
7212;DHT22;3647;48.792;9.802;2023-07-08T16:39:07;32.50;57.90
7212;DHT22;3647;48.792;9.802;2023-07-08T16:41:35;32.70;58.10
7212;DHT22;3647;48.792;9.802;2023-07-08T16:44:02;32.80;58.00
7212;DHT22;3647;48.792;9.802;2023-07-08T16:46:29;32.80;58.50
7212;DHT22;3647;48.792;9.802;2023-07-08T16:48:56;32.70;58.30
7212;DHT22;3647;48.792;9.802;2023-07-08T16:51:26;32.60;58.70
7212;DHT22;3647;48.792;9.802;2023-07-08T16:53:58;32.60;58.70
7212;DHT22;3647;48.792;9.802;2023-07-08T16:56:29;32.60;59.40
7212;DHT22;3647;48.792;9.802;2023-07-08T16:58:56;32.50;59.80
7212;DHT22;3647;48.792;9.802;2023-07-08T17:01:26;32.50;59.10
7212;DHT22;3647;48.792;9.802;2023-07-08T17:03:54;32.50;59.00
7212;DHT22;3647;48.792;9.802;2023-07-08T17:06:23;32.50;59.10
7212;DHT22;3647;48.792;9.802;2023-07-08T17:08:50;32.40;58.90
7212;DHT22;3647;48.792;9.802;2023-07-08T17:11:17;32.40;58.50
7212;DHT22;3647;48.792;9.802;2023-07-08T17:13:45;32.10;59.20
7212;DHT22;3647;48.792;9.802;2023-07-08T17:16:15;32.10;61.00
7212;DHT22;3647;48.792;9.802;2023-07-08T17:18:42;32.20;62.50
7212;DHT22;3647;48.792;9.802;2023-07-08T17:21:14;34.30;62.70
7212;DHT22;3647;48.792;9.802;2023-07-08T17:23:41;32.30;61.20
7212;DHT22;3647;48.792;9.802;2023-07-08T17:26:08;32.30;61.30
7212;DHT22;3647;48.792;9.802;2023-07-08T17:28:34;32.30;61.40
7212;DHT22;3647;48.792;9.802;2023-07-08T17:31:04;32.20;61.40
7212;DHT22;3647;48.792;9.802;2023-07-08T17:33:31;32.20;62.00
7212;DHT22;3647;48.792;9.802;2023-07-08T17:35:57;32.10;61.70
7212;DHT22;3647;48.792;9.802;2023-07-08T17:38:44;32.10;61.80
7212;DHT22;3647;48.792;9.802;2023-07-08T17:41:13;32.10;61.10
7212;DHT22;3647;48.792;9.802;2023-07-08T17:43:40;32.10;62.10
7212;DHT22;3647;48.792;9.802;2023-07-08T17:46:10;32.00;61.80
7212;DHT22;3647;48.792;9.802;2023-07-08T17:48:38;32.00;61.60
7212;DHT22;3647;48.792;9.802;2023-07-08T17:51:12;31.90;61.80
7212;DHT22;3647;48.792;9.802;2023-07-08T17:53:40;31.90;62.10
7212;DHT22;3647;48.792;9.802;2023-07-08T17:56:17;31.90;62.80
7212;DHT22;3647;48.792;9.802;2023-07-08T17:58:45;31.80;63.50
7212;DHT22;3647;48.792;9.802;2023-07-08T18:01:13;31.70;62.80
7212;DHT22;3647;48.792;9.802;2023-07-08T18:03:40;31.70;62.80
7212;DHT22;3647;48.792;9.802;2023-07-08T18:06:06;31.50;63.30
7212;DHT22;3647;48.792;9.802;2023-07-08T18:08:33;31.50;63.70
7212;DHT22;3647;48.792;9.802;2023-07-08T18:11:00;31.50;64.00
7212;DHT22;3647;48.792;9.802;2023-07-08T18:13:31;31.40;64.60
7212;DHT22;3647;48.792;9.802;2023-07-08T18:15:59;31.30;64.80
7212;DHT22;3647;48.792;9.802;2023-07-08T18:18:28;31.20;64.10
7212;DHT22;3647;48.792;9.802;2023-07-08T18:20:54;31.20;64.60
7212;DHT22;3647;48.792;9.802;2023-07-08T18:23:23;31.10;64.00
7212;DHT22;3647;48.792;9.802;2023-07-08T18:25:50;31.00;64.70
7212;DHT22;3647;48.792;9.802;2023-07-08T18:28:17;30.90;64.00
7212;DHT22;3647;48.792;9.802;2023-07-08T18:30:44;30.80;65.20
7212;DHT22;3647;48.792;9.802;2023-07-08T18:33:13;30.70;65.50
7212;DHT22;3647;48.792;9.802;2023-07-08T18:35:44;30.60;65.80
7212;DHT22;3647;48.792;9.802;2023-07-08T18:38:11;30.40;66.00
7212;DHT22;3647;48.792;9.802;2023-07-08T18:40:39;30.30;66.10
7212;DHT22;3647;48.792;9.802;2023-07-08T18:46:29;30.10;67.00
7212;DHT22;3647;48.792;9.802;2023-07-08T18:48:56;29.90;67.80
7212;DHT22;3647;48.792;9.802;2023-07-08T18:51:42;29.90;67.70
7212;DHT22;3647;48.792;9.802;2023-07-08T18:54:13;29.70;67.70
7212;DHT22;3647;48.792;9.802;2023-07-08T18:56:41;29.50;70.10
7212;DHT22;3647;48.792;9.802;2023-07-08T18:59:08;29.30;71.40
7212;DHT22;3647;48.792;9.802;2023-07-08T19:01:37;29.00;72.40
7212;DHT22;3647;48.792;9.802;2023-07-08T19:04:05;28.70;74.50
7212;DHT22;3647;48.792;9.802;2023-07-08T19:06:33;28.30;75.20
7212;DHT22;3647;48.792;9.802;2023-07-08T19:09:00;28.20;79.80
7212;DHT22;3647;48.792;9.802;2023-07-08T19:11:27;28.00;77.80
7212;DHT22;3647;48.792;9.802;2023-07-08T19:13:55;27.80;79.30
7212;DHT22;3647;48.792;9.802;2023-07-08T19:16:21;27.70;80.20
7212;DHT22;3647;48.792;9.802;2023-07-08T19:18:49;27.50;80.70
7212;DHT22;3647;48.792;9.802;2023-07-08T19:21:20;27.40;81.00
7212;DHT22;3647;48.792;9.802;2023-07-08T19:23:50;27.40;81.40
7212;DHT22;3647;48.792;9.802;2023-07-08T19:26:19;27.30;82.00
7212;DHT22;3647;48.792;9.802;2023-07-08T19:28:48;27.10;83.00
7212;DHT22;3647;48.792;9.802;2023-07-08T19:31:18;26.90;84.10
7212;DHT22;3647;48.792;9.802;2023-07-08T19:33:47;26.80;84.80
7212;DHT22;3647;48.792;9.802;2023-07-08T19:36:15;26.70;85.80
7212;DHT22;3647;48.792;9.802;2023-07-08T19:38:41;26.60;86.20
7212;DHT22;3647;48.792;9.802;2023-07-08T19:41:10;26.50;86.30
7212;DHT22;3647;48.792;9.802;2023-07-08T19:43:38;26.40;87.50
7212;DHT22;3647;48.792;9.802;2023-07-08T19:46:07;26.20;87.90
7212;DHT22;3647;48.792;9.802;2023-07-08T19:48:35;26.30;89.00
7212;DHT22;3647;48.792;9.802;2023-07-08T19:51:02;26.20;88.90
7212;DHT22;3647;48.792;9.802;2023-07-08T19:53:28;27.50;90.40
7212;DHT22;3647;48.792;9.802;2023-07-08T19:55:55;26.20;90.30
7212;DHT22;3647;48.792;9.802;2023-07-08T19:58:24;26.30;89.90
7212;DHT22;3647;48.792;9.802;2023-07-08T20:00:51;26.20;90.10
7212;DHT22;3647;48.792;9.802;2023-07-08T20:03:17;26.00;90.50
7212;DHT22;3647;48.792;9.802;2023-07-08T20:05:45;25.80;90.80
7212;DHT22;3647;48.792;9.802;2023-07-08T20:08:25;25.70;91.40
7212;DHT22;3647;48.792;9.802;2023-07-08T20:10:54;25.60;91.80
7212;DHT22;3647;48.792;9.802;2023-07-08T20:13:22;25.60;92.00
7212;DHT22;3647;48.792;9.802;2023-07-08T20:15:50;25.50;91.60
7212;DHT22;3647;48.792;9.802;2023-07-08T20:18:22;25.40;92.00
7212;DHT22;3647;48.792;9.802;2023-07-08T20:20:51;25.20;92.50
7212;DHT22;3647;48.792;9.802;2023-07-08T20:23:23;25.10;92.80
7212;DHT22;3647;48.792;9.802;2023-07-08T20:25:50;25.10;93.00
7212;DHT22;3647;48.792;9.802;2023-07-08T20:28:17;25.00;93.30
7212;DHT22;3647;48.792;9.802;2023-07-08T20:30:44;25.00;94.10
7212;DHT22;3647;48.792;9.802;2023-07-08T20:33:13;25.00;94.30
7212;DHT22;3647;48.792;9.802;2023-07-08T20:35:40;24.90;94.50
7212;DHT22;3647;48.792;9.802;2023-07-08T20:38:10;24.90;94.50
7212;DHT22;3647;48.792;9.802;2023-07-08T20:40:37;24.80;94.70
7212;DHT22;3647;48.792;9.802;2023-07-08T20:43:10;24.80;95.10
7212;DHT22;3647;48.792;9.802;2023-07-08T20:45:38;24.90;94.90
7212;DHT22;3647;48.792;9.802;2023-07-08T20:48:13;25.00;95.00
7212;DHT22;3647;48.792;9.802;2023-07-08T20:50:43;24.80;95.40
7212;DHT22;3647;48.792;9.802;2023-07-08T20:53:11;24.60;96.00
7212;DHT22;3647;48.792;9.802;2023-07-08T20:55:38;24.60;96.40
7212;DHT22;3647;48.792;9.802;2023-07-08T20:58:11;24.50;97.00
7212;DHT22;3647;48.792;9.802;2023-07-08T21:00:38;24.40;97.20
7212;DHT22;3647;48.792;9.802;2023-07-08T21:03:08;24.40;97.30
7212;DHT22;3647;48.792;9.802;2023-07-08T21:05:36;24.10;98.00
7212;DHT22;3647;48.792;9.802;2023-07-08T21:08:13;23.80;99.10
7212;DHT22;3647;48.792;9.802;2023-07-08T21:10:43;23.70;99.90
7212;DHT22;3647;48.792;9.802;2023-07-08T21:13:10;22.70;99.90
7212;DHT22;3647;48.792;9.802;2023-07-08T21:15:37;23.40;99.90
7212;DHT22;3647;48.792;9.802;2023-07-08T21:18:07;23.30;99.90
7212;DHT22;3647;48.792;9.802;2023-07-08T21:20:36;23.30;99.90
7212;DHT22;3647;48.792;9.802;2023-07-08T21:23:06;23.20;99.90
7212;DHT22;3647;48.792;9.802;2023-07-08T21:25:33;23.00;99.90
7212;DHT22;3647;48.792;9.802;2023-07-08T21:28:00;23.00;99.90
7212;DHT22;3647;48.792;9.802;2023-07-08T21:30:26;22.90;99.90
7212;DHT22;3647;48.792;9.802;2023-07-08T21:32:54;22.90;99.90
7212;DHT22;3647;48.792;9.802;2023-07-08T21:35:22;22.90;99.90
7212;DHT22;3647;48.792;9.802;2023-07-08T21:37:55;22.70;99.90
7212;DHT22;3647;48.792;9.802;2023-07-08T21:40:29;22.70;99.90
7212;DHT22;3647;48.792;9.802;2023-07-08T21:42:57;22.70;99.90
7212;DHT22;3647;48.792;9.802;2023-07-08T21:45:26;22.70;99.90
7212;DHT22;3647;48.792;9.802;2023-07-08T21:47:53;22.70;99.90
7212;DHT22;3647;48.792;9.802;2023-07-08T21:50:20;22.70;99.90
7212;DHT22;3647;48.792;9.802;2023-07-08T21:52:47;22.70;99.90
7212;DHT22;3647;48.792;9.802;2023-07-08T21:55:17;22.60;99.90
